createdAt,value
2018-10-12T00:02:17.903Z,13.50
2018-10-12T00:06:21.669Z,14.53
2018-10-12T00:10:25.481Z,13.47
2018-10-12T00:14:29.210Z,13.90
2018-10-12T00:18:32.954Z,16.07
2018-10-12T00:22:36.709Z,14.93
2018-10-12T00:26:40.436Z,13.37
2018-10-12T00:30:44.208Z,13.83
2018-10-12T00:34:47.935Z,14.60
2018-10-12T00:38:51.681Z,11.53
2018-10-12T00:42:55.406Z,18.47
2018-10-12T00:46:59.186Z,15.47
2018-10-12T00:51:02.910Z,17.97
2018-10-12T00:55:06.762Z,16.00
2018-10-12T00:59:10.478Z,19.23
2018-10-12T01:03:14.202Z,14.37
2018-10-12T01:07:17.933Z,16.67
2018-10-12T01:11:21.707Z,16.87
2018-10-12T01:15:25.531Z,14.87
2018-10-12T01:19:29.238Z,13.73
2018-10-12T01:23:33.078Z,14.17
2018-10-12T01:27:36.847Z,14.50
2018-10-12T01:31:40.584Z,12.43
2018-10-12T01:35:44.358Z,18.83
2018-10-12T01:39:48.099Z,13.50
2018-10-12T01:43:51.820Z,13.27
2018-10-12T01:47:55.555Z,15.97
2018-10-12T01:51:59.271Z,13.80
2018-10-12T01:56:04.537Z,11.90
2018-10-12T02:00:08.679Z,11.20
2018-10-12T02:04:12.391Z,11.03
2018-10-12T02:08:16.260Z,15.87
2018-10-12T02:12:20.085Z,14.57
2018-10-12T02:16:23.849Z,13.33
2018-10-12T02:20:27.539Z,13.90
2018-10-12T02:24:31.280Z,13.23
2018-10-12T02:28:34.985Z,10.90
2018-10-12T02:32:38.864Z,12.27
2018-10-12T02:36:42.646Z,11.90
2018-10-12T02:40:46.328Z,9.73
2018-10-12T02:44:50.048Z,10.23
2018-10-12T02:48:53.827Z,10.87
2018-10-12T02:52:57.582Z,10.53
2018-10-12T02:57:01.297Z,12.57
2018-10-12T03:01:04.977Z,8.53
2018-10-12T03:05:08.730Z,11.80
2018-10-12T03:09:13.024Z,10.93
2018-10-12T03:13:16.768Z,10.33
2018-10-12T03:17:20.486Z,10.37
2018-10-12T03:21:24.185Z,8.70
2018-10-12T03:25:27.933Z,9.33
2018-10-12T03:29:31.660Z,9.33
2018-10-12T03:33:35.680Z,9.37
2018-10-12T03:37:39.433Z,9.90
2018-10-12T03:41:43.173Z,9.10
2018-10-12T03:45:46.936Z,9.33
2018-10-12T03:49:50.673Z,8.83
2018-10-12T03:53:54.382Z,13.63
2018-10-12T03:57:58.069Z,8.97
2018-10-12T04:02:01.763Z,12.83
2018-10-12T04:06:05.542Z,14.43
2018-10-12T04:10:09.290Z,10.03
2018-10-12T04:14:12.987Z,8.53
2018-10-12T04:18:16.708Z,11.93
2018-10-12T04:22:22.810Z,10.50
2018-10-12T04:26:26.532Z,10.03
2018-10-12T04:30:30.318Z,8.60
2018-10-12T04:34:34.035Z,9.10
2018-10-12T04:38:49.101Z,8.30
2018-10-12T04:42:52.827Z,8.77
2018-10-12T04:46:56.649Z,7.90
2018-10-12T04:51:00.554Z,9.57
2018-10-12T04:55:04.651Z,9.00
2018-10-12T04:59:08.435Z,9.87
2018-10-12T05:03:12.127Z,17.47
2018-10-12T05:07:15.910Z,9.47
2018-10-12T05:11:19.684Z,10.00
2018-10-12T05:15:23.444Z,10.00
2018-10-12T05:19:27.169Z,9.53
2018-10-12T05:23:30.923Z,9.67
2018-10-12T05:27:34.637Z,9.87
2018-10-12T05:31:38.387Z,7.70
2018-10-12T05:35:42.206Z,11.23
2018-10-12T05:39:45.933Z,10.20
2018-10-12T05:43:49.758Z,10.07
2018-10-12T05:47:53.464Z,9.63
2018-10-12T05:51:57.247Z,7.87
2018-10-12T05:56:01.110Z,9.83
2018-10-12T06:00:05.266Z,9.10
2018-10-12T06:04:09.023Z,12.13
2018-10-12T06:08:12.785Z,11.83
2018-10-12T06:12:16.646Z,8.93
2018-10-12T06:16:20.421Z,11.07
2018-10-12T06:20:24.252Z,8.80
2018-10-12T06:24:28.061Z,8.00
2018-10-12T06:28:31.854Z,12.63
2018-10-12T06:32:35.573Z,11.57
2018-10-12T06:36:39.328Z,11.47
2018-10-12T06:40:43.076Z,10.17
2018-10-12T06:44:46.825Z,9.87
2018-10-12T06:48:50.629Z,9.57
2018-10-12T06:52:54.413Z,8.20
2018-10-12T06:56:58.125Z,12.47
2018-10-12T07:01:01.910Z,18.83
2018-10-12T07:05:05.750Z,9.70
2018-10-12T07:09:11.406Z,8.30
2018-10-12T07:13:15.143Z,9.70
2018-10-12T07:17:18.851Z,8.57
2018-10-12T07:21:22.605Z,9.30
2018-10-12T07:25:26.336Z,10.93
2018-10-12T07:29:30.042Z,12.37
2018-10-12T07:33:33.756Z,9.00
2018-10-12T07:37:37.565Z,9.33
2018-10-12T07:41:41.308Z,8.50
2018-10-12T07:45:45.017Z,11.77
2018-10-12T07:49:48.784Z,12.10
2018-10-12T07:53:52.500Z,8.53
2018-10-12T07:57:56.231Z,10.70
2018-10-12T08:01:59.972Z,10.83
2018-10-12T08:06:03.674Z,7.70
2018-10-12T08:10:07.698Z,7.70
2018-10-12T08:14:11.524Z,7.03
2018-10-12T08:18:15.307Z,8.27
2018-10-12T08:22:19.052Z,7.90
2018-10-12T08:26:22.758Z,8.67
2018-10-12T08:30:26.534Z,9.40
2018-10-12T08:34:30.287Z,10.10
2018-10-12T08:38:34.060Z,8.13
2018-10-12T08:42:37.789Z,6.93
2018-10-12T08:46:41.495Z,6.23
2018-10-12T08:50:48.646Z,6.30
2018-10-12T08:54:52.531Z,5.80
2018-10-12T08:58:56.348Z,6.90
2018-10-12T09:03:00.057Z,7.23
2018-10-12T09:07:03.785Z,6.63
2018-10-12T09:11:08.057Z,5.87
2018-10-12T09:15:11.769Z,5.73
2018-10-12T09:19:15.509Z,5.30
2018-10-12T09:23:19.249Z,9.07
2018-10-12T09:27:22.994Z,4.23
2018-10-12T09:31:26.716Z,7.07
2018-10-12T09:35:30.525Z,5.50
2018-10-12T09:39:34.217Z,4.80
2018-10-12T09:43:38.016Z,8.40
2018-10-12T09:47:41.745Z,5.63
2018-10-12T09:51:45.553Z,6.23
2018-10-12T09:55:49.335Z,5.33
2018-10-12T09:59:53.024Z,5.83
2018-10-12T10:04:01.878Z,8.57
2018-10-12T10:08:05.662Z,7.87
2018-10-12T10:12:09.448Z,5.70
2018-10-12T10:16:13.156Z,5.93
2018-10-12T10:20:17.176Z,3.20
2018-10-12T10:24:20.857Z,3.47
2018-10-12T10:28:24.564Z,3.20
2018-10-12T10:32:28.271Z,2.80
2018-10-12T10:36:31.976Z,6.77
2018-10-12T10:40:35.697Z,5.73
2018-10-12T10:44:39.397Z,2.53
2018-10-12T10:48:43.121Z,3.80
2018-10-12T10:52:46.872Z,4.67
2018-10-12T10:56:51.680Z,3.90
2018-10-12T11:00:55.539Z,3.00
2018-10-12T11:04:59.263Z,3.17
2018-10-12T11:09:03.217Z,3.17
2018-10-12T11:13:07.365Z,3.03
2018-10-12T11:17:11.069Z,5.17
2018-10-12T11:21:14.805Z,9.27
2018-10-12T11:25:18.512Z,3.53
2018-10-12T11:29:22.327Z,5.20
2018-10-12T11:33:26.060Z,2.77
2018-10-12T11:37:29.859Z,2.97
2018-10-12T11:41:33.565Z,2.77
2018-10-12T11:45:37.234Z,5.43
2018-10-12T11:49:41.845Z,8.13
2018-10-12T11:53:45.666Z,4.47
2018-10-12T11:57:49.465Z,4.00
2018-10-12T12:01:53.192Z,3.50
2018-10-12T12:05:56.994Z,3.77
2018-10-12T12:10:00.781Z,5.43
2018-10-12T12:14:04.581Z,4.03
2018-10-12T12:18:08.363Z,4.57
2018-10-12T12:22:12.120Z,6.07
2018-10-12T12:26:15.825Z,4.93
2018-10-12T12:30:19.536Z,1.93
2018-10-12T12:34:23.265Z,5.53
2018-10-12T12:38:27.082Z,2.97
2018-10-12T12:42:30.832Z,3.07
2018-10-12T12:46:34.592Z,3.60
2018-10-12T12:50:38.367Z,4.10
2018-10-12T12:54:42.387Z,4.00
2018-10-12T12:58:46.065Z,2.53
2018-10-12T13:02:49.780Z,7.57
2018-10-12T13:06:53.489Z,5.37
2018-10-12T13:10:57.248Z,7.10
2018-10-12T13:15:01.008Z,6.10
2018-10-12T13:19:04.774Z,7.13
2018-10-12T13:23:08.672Z,4.10
2018-10-12T13:27:12.371Z,4.87
2018-10-12T13:31:16.122Z,3.13
2018-10-12T13:35:19.930Z,4.93
2018-10-12T13:39:23.639Z,5.97
2018-10-12T13:43:27.364Z,4.97
2018-10-12T13:47:31.042Z,4.70
2018-10-12T13:51:34.815Z,3.73
2018-10-12T13:55:38.742Z,6.77
2018-10-12T13:59:42.565Z,3.63
2018-10-12T14:03:47.016Z,3.27
2018-10-12T14:07:50.836Z,5.40
2018-10-12T14:11:54.702Z,2.07
2018-10-12T14:15:58.457Z,4.93
2018-10-12T14:20:02.280Z,5.20
2018-10-12T14:24:06.047Z,5.40
2018-10-12T14:28:09.776Z,5.57
2018-10-12T14:32:13.504Z,4.27
2018-10-12T14:36:17.341Z,3.70
2018-10-12T14:40:21.176Z,8.27
2018-10-12T14:44:25.138Z,7.80
2018-10-12T14:48:28.706Z,4.67
2018-10-12T14:52:32.458Z,6.07
2018-10-12T14:56:36.238Z,5.60
2018-10-12T15:00:39.998Z,5.33
2018-10-12T15:04:44.132Z,8.00
2018-10-12T15:08:47.823Z,3.73
2018-10-12T15:12:52.269Z,8.80
2018-10-12T15:17:01.438Z,8.30
2018-10-12T15:21:05.976Z,6.17
2018-10-12T15:25:09.945Z,7.20
2018-10-12T15:29:13.712Z,5.93
2018-10-12T15:33:17.424Z,5.57
2018-10-12T15:37:21.221Z,5.17
2018-10-12T15:41:25.011Z,4.67
2018-10-12T15:45:28.830Z,6.40
2018-10-12T15:49:32.646Z,4.50
2018-10-12T15:53:36.359Z,4.00
2018-10-12T15:57:40.109Z,5.63
2018-10-12T16:01:43.823Z,5.93
2018-10-12T16:05:47.610Z,8.37
2018-10-12T16:09:52.360Z,8.40
2018-10-12T16:13:56.753Z,6.87
2018-10-12T16:18:00.444Z,8.33
2018-10-12T16:22:04.171Z,5.20
2018-10-12T16:26:14.432Z,6.60
2018-10-12T16:30:18.232Z,7.70
2018-10-12T16:34:22.028Z,6.87
2018-10-12T16:38:25.905Z,5.53
2018-10-12T16:42:29.503Z,8.63
2018-10-12T16:46:33.229Z,6.77
2018-10-12T16:50:36.958Z,5.73
2018-10-12T16:54:40.822Z,5.63
2018-10-12T16:58:44.709Z,5.33
2018-10-12T17:02:48.386Z,5.63
2018-10-12T17:06:52.100Z,6.57
2018-10-12T17:10:55.792Z,9.27
2018-10-12T17:15:01.039Z,6.57
2018-10-12T17:19:06.862Z,4.77
2018-10-12T17:23:10.635Z,7.00
2018-10-12T17:27:14.348Z,3.40
2018-10-12T17:31:18.047Z,5.07
2018-10-12T17:35:21.813Z,6.53
2018-10-12T17:39:26.047Z,6.20
2018-10-12T17:43:29.769Z,4.10
2018-10-12T17:47:33.524Z,4.57
2018-10-12T17:51:37.245Z,5.13
2018-10-12T17:55:40.961Z,5.90
2018-10-12T17:59:44.780Z,5.57
2018-10-12T18:03:48.477Z,12.20
2018-10-12T18:07:52.207Z,5.33
2018-10-12T18:11:55.956Z,4.60
2018-10-12T18:15:59.672Z,6.27
2018-10-12T18:20:03.373Z,5.00
2018-10-12T18:24:07.216Z,5.10
2018-10-12T18:28:10.924Z,10.47
2018-10-12T18:32:14.808Z,5.90
2018-10-12T18:36:18.532Z,9.13
2018-10-12T18:40:22.244Z,8.30
2018-10-12T18:44:25.982Z,6.10
2018-10-12T18:48:29.701Z,7.83
2018-10-12T18:52:33.486Z,5.77
2018-10-12T18:56:37.177Z,9.87
2018-10-12T19:00:40.961Z,5.63
2018-10-12T19:04:44.768Z,4.63
2018-10-12T19:08:48.401Z,3.87
2018-10-12T19:12:52.154Z,4.93
2018-10-12T19:16:55.827Z,4.77
2018-10-12T19:20:59.537Z,5.67
2018-10-12T19:25:03.307Z,4.40
2018-10-12T19:29:07.184Z,3.60
2018-10-12T19:33:10.904Z,4.63
2018-10-12T19:37:14.603Z,5.80
2018-10-12T19:41:18.312Z,3.43
2018-10-12T19:45:22.012Z,4.40
2018-10-12T19:49:25.756Z,3.23
2018-10-12T19:53:29.477Z,3.47
2018-10-12T19:57:33.223Z,4.80
2018-10-12T20:01:36.960Z,3.20
2018-10-12T20:05:40.648Z,8.87
2018-10-12T20:09:44.368Z,8.23
2018-10-12T20:13:48.033Z,6.07
2018-10-12T20:17:51.906Z,4.30
2018-10-12T20:21:55.597Z,7.17
2018-10-12T20:25:59.282Z,8.03
2018-10-12T20:30:03.059Z,6.80
2018-10-12T20:34:06.884Z,3.93
2018-10-12T20:38:10.622Z,7.57
2018-10-12T20:42:14.325Z,5.73
2018-10-12T20:46:18.033Z,5.10
2018-10-12T20:50:21.698Z,5.73
2018-10-12T20:54:25.412Z,5.30
2018-10-12T20:58:29.198Z,7.10
2018-10-12T21:02:32.901Z,5.60
2018-10-12T21:06:43.335Z,5.53
2018-10-12T21:10:47.135Z,4.23
2018-10-12T21:14:50.817Z,8.00
2018-10-12T21:18:54.539Z,4.60
2018-10-12T21:22:58.256Z,4.63
2018-10-12T21:27:01.989Z,7.13
2018-10-12T21:31:05.827Z,6.70
2018-10-12T21:35:09.567Z,6.97
2018-10-12T21:39:13.315Z,7.13
2018-10-12T21:43:17.037Z,3.83
2018-10-12T21:47:20.743Z,5.63
2018-10-12T21:51:24.421Z,4.60
2018-10-12T21:55:28.125Z,5.07
2018-10-12T21:59:31.840Z,8.63
2018-10-12T22:03:36.885Z,5.17
2018-10-12T22:07:40.600Z,3.77
2018-10-12T22:11:44.296Z,6.97
2018-10-12T22:15:48.012Z,4.50
2018-10-12T22:19:51.814Z,6.13
2018-10-12T22:23:55.580Z,3.43
2018-10-12T22:27:59.278Z,5.00
2018-10-12T22:32:03.049Z,7.17
2018-10-12T22:36:06.876Z,7.47
2018-10-12T22:40:10.617Z,6.53
2018-10-12T22:44:14.339Z,5.57
2018-10-12T22:48:18.045Z,5.20
2018-10-12T22:52:21.752Z,8.03
2018-10-12T22:56:25.420Z,7.23
2018-10-12T23:00:30.317Z,5.80
2018-10-12T23:04:34.064Z,6.80
2018-10-12T23:08:37.813Z,6.93
2018-10-12T23:12:41.539Z,5.50
2018-10-12T23:16:45.203Z,9.60
2018-10-12T23:20:48.957Z,4.70
2018-10-12T23:24:52.697Z,5.17
2018-10-12T23:28:56.482Z,5.87
2018-10-12T23:33:11.341Z,5.93
2018-10-12T23:37:15.293Z,7.50
2018-10-12T23:41:19.000Z,7.80
2018-10-12T23:45:22.887Z,7.03
2018-10-12T23:49:26.621Z,4.87
2018-10-12T23:53:30.317Z,7.23
2018-10-12T23:57:34.023Z,6.33
